sensor_id;sensor_type;location;lat;lon;timestamp;P1;durP1;ratioP1;P2;durP2;ratioP2
80854;SDS011;70272;49.222;-122.892;2024-02-23T00:02:19;3.67;;;1.77;;
80854;SDS011;70272;49.222;-122.892;2024-02-23T00:04:46;5.40;;;3.05;;
80854;SDS011;70272;49.222;-122.892;2024-02-23T00:07:12;1.83;;;1.15;;
80854;SDS011;70272;49.222;-122.892;2024-02-23T00:09:38;3.17;;;1.70;;
80854;SDS011;70272;49.222;-122.892;2024-02-23T00:12:05;2.70;;;1.88;;
80854;SDS011;70272;49.222;-122.892;2024-02-23T00:14:31;1.83;;;1.45;;
80854;SDS011;70272;49.222;-122.892;2024-02-23T00:16:58;1.98;;;1.30;;
80854;SDS011;70272;49.222;-122.892;2024-02-23T00:19:26;3.42;;;1.70;;
80854;SDS011;70272;49.222;-122.892;2024-02-23T00:21:52;3.05;;;1.58;;
80854;SDS011;70272;49.222;-122.892;2024-02-23T00:24:19;2.60;;;1.80;;
80854;SDS011;70272;49.222;-122.892;2024-02-23T00:26:48;2.53;;;1.90;;
80854;SDS011;70272;49.222;-122.892;2024-02-23T00:29:17;2.17;;;1.40;;
80854;SDS011;70272;49.222;-122.892;2024-02-23T00:31:43;3.67;;;1.70;;
80854;SDS011;70272;49.222;-122.892;2024-02-23T00:34:12;5.25;;;1.70;;
80854;SDS011;70272;49.222;-122.892;2024-02-23T00:36:42;3.30;;;1.23;;
80854;SDS011;70272;49.222;-122.892;2024-02-23T00:39:11;2.53;;;1.58;;
80854;SDS011;70272;49.222;-122.892;2024-02-23T00:41:37;3.22;;;1.50;;
80854;SDS011;70272;49.222;-122.892;2024-02-23T00:44:04;2.38;;;1.20;;
80854;SDS011;70272;49.222;-122.892;2024-02-23T00:46:32;2.70;;;2.00;;
80854;SDS011;70272;49.222;-122.892;2024-02-23T00:48:59;2.95;;;1.90;;
80854;SDS011;70272;49.222;-122.892;2024-02-23T00:51:25;5.10;;;1.42;;
80854;SDS011;70272;49.222;-122.892;2024-02-23T00:53:54;5.10;;;1.58;;
80854;SDS011;70272;49.222;-122.892;2024-02-23T00:56:21;2.95;;;1.55;;
80854;SDS011;70272;49.222;-122.892;2024-02-23T00:58:47;1.77;;;1.40;;
80854;SDS011;70272;49.222;-122.892;2024-02-23T01:01:13;2.15;;;1.40;;
80854;SDS011;70272;49.222;-122.892;2024-02-23T01:03:39;4.15;;;1.45;;
80854;SDS011;70272;49.222;-122.892;2024-02-23T01:06:06;2.22;;;1.60;;
80854;SDS011;70272;49.222;-122.892;2024-02-23T01:08:32;3.58;;;1.70;;
80854;SDS011;70272;49.222;-122.892;2024-02-23T01:10:58;1.58;;;1.20;;
80854;SDS011;70272;49.222;-122.892;2024-02-23T01:13:24;2.83;;;1.40;;
80854;SDS011;70272;49.222;-122.892;2024-02-23T01:15:51;4.13;;;1.70;;
80854;SDS011;70272;49.222;-122.892;2024-02-23T01:18:19;3.53;;;1.80;;
80854;SDS011;70272;49.222;-122.892;2024-02-23T01:20:45;2.63;;;1.70;;
80854;SDS011;70272;49.222;-122.892;2024-02-23T01:23:12;3.60;;;1.48;;
80854;SDS011;70272;49.222;-122.892;2024-02-23T01:25:38;3.63;;;1.95;;
80854;SDS011;70272;49.222;-122.892;2024-02-23T01:28:04;3.15;;;1.77;;
80854;SDS011;70272;49.222;-122.892;2024-02-23T01:30:30;3.10;;;1.48;;
80854;SDS011;70272;49.222;-122.892;2024-02-23T01:32:57;2.35;;;1.65;;
80854;SDS011;70272;49.222;-122.892;2024-02-23T01:35:23;3.40;;;1.98;;
80854;SDS011;70272;49.222;-122.892;2024-02-23T01:37:49;2.35;;;1.60;;
80854;SDS011;70272;49.222;-122.892;2024-02-23T01:40:15;2.50;;;1.63;;
80854;SDS011;70272;49.222;-122.892;2024-02-23T01:42:42;2.90;;;1.60;;
80854;SDS011;70272;49.222;-122.892;2024-02-23T01:45:08;1.80;;;1.42;;
80854;SDS011;70272;49.222;-122.892;2024-02-23T01:47:34;3.08;;;1.55;;
80854;SDS011;70272;49.222;-122.892;2024-02-23T01:50:01;2.95;;;1.40;;
80854;SDS011;70272;49.222;-122.892;2024-02-23T01:52:28;3.15;;;1.60;;
80854;SDS011;70272;49.222;-122.892;2024-02-23T01:54:55;2.13;;;1.45;;
80854;SDS011;70272;49.222;-122.892;2024-02-23T01:57:22;2.33;;;1.58;;
80854;SDS011;70272;49.222;-122.892;2024-02-23T01:59:49;2.28;;;1.50;;
80854;SDS011;70272;49.222;-122.892;2024-02-23T02:02:15;2.33;;;1.50;;
80854;SDS011;70272;49.222;-122.892;2024-02-23T02:04:42;2.78;;;1.73;;
80854;SDS011;70272;49.222;-122.892;2024-02-23T02:07:08;2.95;;;1.77;;
80854;SDS011;70272;49.222;-122.892;2024-02-23T02:09:35;2.50;;;1.70;;
80854;SDS011;70272;49.222;-122.892;2024-02-23T02:12:01;3.40;;;1.73;;
80854;SDS011;70272;49.222;-122.892;2024-02-23T02:14:28;2.88;;;1.75;;
80854;SDS011;70272;49.222;-122.892;2024-02-23T02:16:56;3.00;;;1.95;;
80854;SDS011;70272;49.222;-122.892;2024-02-23T02:19:23;3.90;;;2.70;;
80854;SDS011;70272;49.222;-122.892;2024-02-23T02:21:49;5.85;;;2.70;;
80854;SDS011;70272;49.222;-122.892;2024-02-23T02:24:15;3.70;;;2.08;;
80854;SDS011;70272;49.222;-122.892;2024-02-23T02:26:42;3.28;;;2.17;;
80854;SDS011;70272;49.222;-122.892;2024-02-23T02:29:10;3.28;;;1.80;;
80854;SDS011;70272;49.222;-122.892;2024-02-23T02:31:37;3.75;;;2.20;;
80854;SDS011;70272;49.222;-122.892;2024-02-23T02:34:04;2.63;;;1.90;;
80854;SDS011;70272;49.222;-122.892;2024-02-23T02:36:30;3.72;;;1.98;;
80854;SDS011;70272;49.222;-122.892;2024-02-23T02:38:57;3.15;;;2.00;;
80854;SDS011;70272;49.222;-122.892;2024-02-23T02:41:23;3.67;;;2.63;;
80854;SDS011;70272;49.222;-122.892;2024-02-23T02:43:55;3.83;;;2.55;;
80854;SDS011;70272;49.222;-122.892;2024-02-23T02:46:21;3.50;;;2.28;;
80854;SDS011;70272;49.222;-122.892;2024-02-23T02:48:47;3.20;;;2.42;;
80854;SDS011;70272;49.222;-122.892;2024-02-23T02:51:14;3.42;;;2.58;;
80854;SDS011;70272;49.222;-122.892;2024-02-23T02:53:40;4.15;;;2.50;;
80854;SDS011;70272;49.222;-122.892;2024-02-23T02:56:07;6.45;;;2.50;;
80854;SDS011;70272;49.222;-122.892;2024-02-23T02:58:33;3.30;;;2.22;;
80854;SDS011;70272;49.222;-122.892;2024-02-23T03:00:59;4.35;;;2.15;;
80854;SDS011;70272;49.222;-122.892;2024-02-23T03:03:25;2.55;;;1.88;;
80854;SDS011;70272;49.222;-122.892;2024-02-23T03:05:52;2.78;;;1.85;;
80854;SDS011;70272;49.222;-122.892;2024-02-23T03:08:18;2.95;;;1.90;;
80854;SDS011;70272;49.222;-122.892;2024-02-23T03:10:44;5.22;;;2.28;;
80854;SDS011;70272;49.222;-122.892;2024-02-23T03:13:10;2.85;;;2.20;;
80854;SDS011;70272;49.222;-122.892;2024-02-23T03:15:37;3.55;;;2.05;;
80854;SDS011;70272;49.222;-122.892;2024-02-23T03:18:03;3.08;;;1.92;;
80854;SDS011;70272;49.222;-122.892;2024-02-23T03:20:30;3.13;;;2.08;;
80854;SDS011;70272;49.222;-122.892;2024-02-23T03:22:56;2.47;;;1.88;;
80854;SDS011;70272;49.222;-122.892;2024-02-23T03:25:22;3.60;;;2.00;;
80854;SDS011;70272;49.222;-122.892;2024-02-23T03:27:49;3.92;;;2.10;;
80854;SDS011;70272;49.222;-122.892;2024-02-23T03:30:15;3.33;;;2.00;;
80854;SDS011;70272;49.222;-122.892;2024-02-23T03:32:41;3.22;;;2.10;;
80854;SDS011;70272;49.222;-122.892;2024-02-23T03:35:08;7.53;;;2.40;;
80854;SDS011;70272;49.222;-122.892;2024-02-23T03:37:34;3.65;;;2.50;;
80854;SDS011;70272;49.222;-122.892;2024-02-23T03:40:00;4.43;;;2.47;;
80854;SDS011;70272;49.222;-122.892;2024-02-23T03:42:27;2.72;;;2.10;;
80854;SDS011;70272;49.222;-122.892;2024-02-23T03:44:53;3.92;;;2.25;;
80854;SDS011;70272;49.222;-122.892;2024-02-23T03:47:20;10.35;;;2.50;;
80854;SDS011;70272;49.222;-122.892;2024-02-23T03:49:46;3.53;;;2.25;;
80854;SDS011;70272;49.222;-122.892;2024-02-23T03:52:13;3.00;;;1.95;;
80854;SDS011;70272;49.222;-122.892;2024-02-23T03:54:39;3.22;;;2.00;;
80854;SDS011;70272;49.222;-122.892;2024-02-23T03:57:05;3.50;;;2.40;;
80854;SDS011;70272;49.222;-122.892;2024-02-23T03:59:31;3.83;;;2.30;;
80854;SDS011;70272;49.222;-122.892;2024-02-23T04:01:58;4.82;;;2.70;;
80854;SDS011;70272;49.222;-122.892;2024-02-23T04:04:24;2.55;;;1.88;;
80854;SDS011;70272;49.222;-122.892;2024-02-23T04:06:50;3.20;;;2.63;;
80854;SDS011;70272;49.222;-122.892;2024-02-23T04:09:17;3.95;;;1.92;;
80854;SDS011;70272;49.222;-122.892;2024-02-23T04:11:43;2.35;;;1.60;;
80854;SDS011;70272;49.222;-122.892;2024-02-23T04:14:09;3.72;;;1.90;;
80854;SDS011;70272;49.222;-122.892;2024-02-23T04:16:36;2.35;;;1.67;;
80854;SDS011;70272;49.222;-122.892;2024-02-23T04:19:02;3.45;;;1.52;;
80854;SDS011;70272;49.222;-122.892;2024-02-23T04:21:28;1.98;;;1.33;;
80854;SDS011;70272;49.222;-122.892;2024-02-23T04:23:55;1.90;;;1.60;;
80854;SDS011;70272;49.222;-122.892;2024-02-23T04:26:21;2.03;;;1.50;;
80854;SDS011;70272;49.222;-122.892;2024-02-23T04:28:48;2.63;;;1.55;;
80854;SDS011;70272;49.222;-122.892;2024-02-23T04:31:14;2.22;;;1.50;;
80854;SDS011;70272;49.222;-122.892;2024-02-23T04:33:40;2.30;;;1.63;;
80854;SDS011;70272;49.222;-122.892;2024-02-23T04:36:07;1.95;;;1.50;;
80854;SDS011;70272;49.222;-122.892;2024-02-23T04:38:33;2.38;;;1.55;;
80854;SDS011;70272;49.222;-122.892;2024-02-23T04:41:02;2.28;;;1.52;;
80854;SDS011;70272;49.222;-122.892;2024-02-23T04:43:32;2.47;;;1.63;;
80854;SDS011;70272;49.222;-122.892;2024-02-23T04:45:58;2.20;;;1.60;;
80854;SDS011;70272;49.222;-122.892;2024-02-23T04:48:25;3.20;;;1.90;;
80854;SDS011;70272;49.222;-122.892;2024-02-23T04:50:51;2.92;;;1.90;;
80854;SDS011;70272;49.222;-122.892;2024-02-23T04:53:17;2.42;;;1.60;;
80854;SDS011;70272;49.222;-122.892;2024-02-23T04:55:44;3.58;;;1.80;;
80854;SDS011;70272;49.222;-122.892;2024-02-23T04:58:10;3.05;;;2.03;;
80854;SDS011;70272;49.222;-122.892;2024-02-23T05:00:37;2.35;;;1.70;;
80854;SDS011;70272;49.222;-122.892;2024-02-23T05:03:05;1.85;;;1.50;;
80854;SDS011;70272;49.222;-122.892;2024-02-23T05:05:31;2.00;;;1.60;;
80854;SDS011;70272;49.222;-122.892;2024-02-23T05:07:58;3.63;;;1.75;;
80854;SDS011;70272;49.222;-122.892;2024-02-23T05:10:24;2.33;;;1.67;;
80854;SDS011;70272;49.222;-122.892;2024-02-23T05:12:51;2.53;;;1.58;;
80854;SDS011;70272;49.222;-122.892;2024-02-23T05:15:17;3.47;;;1.88;;
80854;SDS011;70272;49.222;-122.892;2024-02-23T05:17:43;2.25;;;1.60;;
80854;SDS011;70272;49.222;-122.892;2024-02-23T05:20:10;2.70;;;1.77;;
80854;SDS011;70272;49.222;-122.892;2024-02-23T05:22:38;2.35;;;1.65;;
80854;SDS011;70272;49.222;-122.892;2024-02-23T05:25:05;2.20;;;1.80;;
80854;SDS011;70272;49.222;-122.892;2024-02-23T05:27:31;2.80;;;1.80;;
80854;SDS011;70272;49.222;-122.892;2024-02-23T05:29:58;3.95;;;1.75;;
80854;SDS011;70272;49.222;-122.892;2024-02-23T05:32:24;2.50;;;1.70;;
80854;SDS011;70272;49.222;-122.892;2024-02-23T05:34:50;4.18;;;2.20;;
80854;SDS011;70272;49.222;-122.892;2024-02-23T05:37:18;3.05;;;1.90;;
80854;SDS011;70272;49.222;-122.892;2024-02-23T05:39:44;2.72;;;1.80;;
80854;SDS011;70272;49.222;-122.892;2024-02-23T05:42:11;2.15;;;1.60;;
80854;SDS011;70272;49.222;-122.892;2024-02-23T05:44:38;3.78;;;1.75;;
80854;SDS011;70272;49.222;-122.892;2024-02-23T05:47:05;3.22;;;1.98;;
80854;SDS011;70272;49.222;-122.892;2024-02-23T05:49:31;3.45;;;2.00;;
80854;SDS011;70272;49.222;-122.892;2024-02-23T05:51:58;4.50;;;2.42;;
80854;SDS011;70272;49.222;-122.892;2024-02-23T05:54:24;3.22;;;2.20;;
80854;SDS011;70272;49.222;-122.892;2024-02-23T05:56:51;3.28;;;2.20;;
80854;SDS011;70272;49.222;-122.892;2024-02-23T05:59:17;2.20;;;1.98;;
80854;SDS011;70272;49.222;-122.892;2024-02-23T06:01:43;3.10;;;2.13;;
80854;SDS011;70272;49.222;-122.892;2024-02-23T06:04:10;4.32;;;2.25;;
80854;SDS011;70272;49.222;-122.892;2024-02-23T06:06:36;4.45;;;2.45;;
80854;SDS011;70272;49.222;-122.892;2024-02-23T06:09:02;3.50;;;2.50;;
80854;SDS011;70272;49.222;-122.892;2024-02-23T06:11:31;3.40;;;2.42;;
80854;SDS011;70272;49.222;-122.892;2024-02-23T06:13:57;3.40;;;2.00;;
80854;SDS011;70272;49.222;-122.892;2024-02-23T06:16:23;4.13;;;2.03;;
80854;SDS011;70272;49.222;-122.892;2024-02-23T06:18:49;3.05;;;2.20;;
80854;SDS011;70272;49.222;-122.892;2024-02-23T06:21:16;3.55;;;2.70;;
80854;SDS011;70272;49.222;-122.892;2024-02-23T06:23:43;3.08;;;2.30;;
80854;SDS011;70272;49.222;-122.892;2024-02-23T06:26:10;3.17;;;2.38;;
80854;SDS011;70272;49.222;-122.892;2024-02-23T06:28:37;4.90;;;2.75;;
80854;SDS011;70272;49.222;-122.892;2024-02-23T06:31:06;4.10;;;2.88;;
80854;SDS011;70272;49.222;-122.892;2024-02-23T06:33:33;4.68;;;2.92;;
80854;SDS011;70272;49.222;-122.892;2024-02-23T06:36:00;3.30;;;2.47;;
80854;SDS011;70272;49.222;-122.892;2024-02-23T06:38:26;2.97;;;2.10;;
80854;SDS011;70272;49.222;-122.892;2024-02-23T06:40:53;3.05;;;2.17;;
80854;SDS011;70272;49.222;-122.892;2024-02-23T06:43:21;3.20;;;2.08;;
80854;SDS011;70272;49.222;-122.892;2024-02-23T06:45:47;3.70;;;1.90;;
80854;SDS011;70272;49.222;-122.892;2024-02-23T06:48:14;2.78;;;2.00;;
80854;SDS011;70272;49.222;-122.892;2024-02-23T06:50:40;3.10;;;2.03;;
80854;SDS011;70272;49.222;-122.892;2024-02-23T06:53:06;3.53;;;2.30;;
80854;SDS011;70272;49.222;-122.892;2024-02-23T06:55:34;3.05;;;1.98;;
80854;SDS011;70272;49.222;-122.892;2024-02-23T06:58:01;2.40;;;1.95;;
80854;SDS011;70272;49.222;-122.892;2024-02-23T07:00:30;4.40;;;1.83;;
80854;SDS011;70272;49.222;-122.892;2024-02-23T07:02:56;2.22;;;1.70;;
80854;SDS011;70272;49.222;-122.892;2024-02-23T07:05:24;2.70;;;1.75;;
80854;SDS011;70272;49.222;-122.892;2024-02-23T07:07:51;2.47;;;1.70;;
80854;SDS011;70272;49.222;-122.892;2024-02-23T07:10:17;2.65;;;1.80;;
80854;SDS011;70272;49.222;-122.892;2024-02-23T07:12:43;2.78;;;1.90;;
80854;SDS011;70272;49.222;-122.892;2024-02-23T07:15:10;4.18;;;2.15;;
80854;SDS011;70272;49.222;-122.892;2024-02-23T07:17:36;2.95;;;2.10;;
80854;SDS011;70272;49.222;-122.892;2024-02-23T07:20:02;2.90;;;1.92;;
80854;SDS011;70272;49.222;-122.892;2024-02-23T07:22:31;4.13;;;2.15;;
80854;SDS011;70272;49.222;-122.892;2024-02-23T07:24:58;2.78;;;1.98;;
80854;SDS011;70272;49.222;-122.892;2024-02-23T07:27:26;3.70;;;2.10;;
80854;SDS011;70272;49.222;-122.892;2024-02-23T07:29:53;4.60;;;1.92;;
80854;SDS011;70272;49.222;-122.892;2024-02-23T07:32:19;2.90;;;2.05;;
80854;SDS011;70272;49.222;-122.892;2024-02-23T07:34:45;2.67;;;1.90;;
80854;SDS011;70272;49.222;-122.892;2024-02-23T07:37:11;3.58;;;1.90;;
80854;SDS011;70272;49.222;-122.892;2024-02-23T07:39:38;3.22;;;2.15;;
80854;SDS011;70272;49.222;-122.892;2024-02-23T07:42:05;2.83;;;1.92;;
80854;SDS011;70272;49.222;-122.892;2024-02-23T07:44:31;4.15;;;2.10;;
80854;SDS011;70272;49.222;-122.892;2024-02-23T07:46:58;4.35;;;2.20;;
80854;SDS011;70272;49.222;-122.892;2024-02-23T07:49:25;3.10;;;1.92;;
80854;SDS011;70272;49.222;-122.892;2024-02-23T07:51:53;3.33;;;2.28;;
80854;SDS011;70272;49.222;-122.892;2024-02-23T07:54:20;3.10;;;2.13;;
80854;SDS011;70272;49.222;-122.892;2024-02-23T07:56:46;4.18;;;2.55;;
80854;SDS011;70272;49.222;-122.892;2024-02-23T07:59:12;4.10;;;2.47;;
80854;SDS011;70272;49.222;-122.892;2024-02-23T08:01:39;3.70;;;2.50;;
80854;SDS011;70272;49.222;-122.892;2024-02-23T08:04:07;3.58;;;2.45;;
80854;SDS011;70272;49.222;-122.892;2024-02-23T08:06:34;4.32;;;2.22;;
80854;SDS011;70272;49.222;-122.892;2024-02-23T08:09:00;4.32;;;2.38;;
80854;SDS011;70272;49.222;-122.892;2024-02-23T08:11:27;3.88;;;2.55;;
80854;SDS011;70272;49.222;-122.892;2024-02-23T08:13:54;4.80;;;2.70;;
80854;SDS011;70272;49.222;-122.892;2024-02-23T08:16:20;5.22;;;2.38;;
80854;SDS011;70272;49.222;-122.892;2024-02-23T08:18:47;3.72;;;2.30;;
80854;SDS011;70272;49.222;-122.892;2024-02-23T08:21:13;3.38;;;2.35;;
80854;SDS011;70272;49.222;-122.892;2024-02-23T08:23:39;3.85;;;2.42;;
80854;SDS011;70272;49.222;-122.892;2024-02-23T08:26:06;4.97;;;2.60;;
80854;SDS011;70272;49.222;-122.892;2024-02-23T08:28:32;4.32;;;2.50;;
80854;SDS011;70272;49.222;-122.892;2024-02-23T08:30:58;3.58;;;2.10;;
80854;SDS011;70272;49.222;-122.892;2024-02-23T08:33:24;5.18;;;2.83;;
80854;SDS011;70272;49.222;-122.892;2024-02-23T08:35:51;4.05;;;2.00;;
80854;SDS011;70272;49.222;-122.892;2024-02-23T08:38:17;3.67;;;2.20;;
80854;SDS011;70272;49.222;-122.892;2024-02-23T08:40:44;3.60;;;1.90;;
80854;SDS011;70272;49.222;-122.892;2024-02-23T08:43:13;3.70;;;2.47;;
80854;SDS011;70272;49.222;-122.892;2024-02-23T08:45:40;4.13;;;2.40;;
80854;SDS011;70272;49.222;-122.892;2024-02-23T08:48:06;3.00;;;1.92;;
80854;SDS011;70272;49.222;-122.892;2024-02-23T08:50:32;3.88;;;2.10;;
80854;SDS011;70272;49.222;-122.892;2024-02-23T08:52:59;4.00;;;1.90;;
80854;SDS011;70272;49.222;-122.892;2024-02-23T08:55:25;2.67;;;1.70;;
80854;SDS011;70272;49.222;-122.892;2024-02-23T08:57:52;3.75;;;1.98;;
80854;SDS011;70272;49.222;-122.892;2024-02-23T09:00:18;2.88;;;1.90;;
80854;SDS011;70272;49.222;-122.892;2024-02-23T09:02:44;2.90;;;1.88;;
80854;SDS011;70272;49.222;-122.892;2024-02-23T09:05:10;3.28;;;1.88;;
80854;SDS011;70272;49.222;-122.892;2024-02-23T09:07:37;2.95;;;1.77;;
80854;SDS011;70272;49.222;-122.892;2024-02-23T09:10:03;4.22;;;1.98;;
80854;SDS011;70272;49.222;-122.892;2024-02-23T09:12:30;3.17;;;1.85;;
80854;SDS011;70272;49.222;-122.892;2024-02-23T09:14:56;1.88;;;1.55;;
80854;SDS011;70272;49.222;-122.892;2024-02-23T09:17:22;3.45;;;1.85;;
80854;SDS011;70272;49.222;-122.892;2024-02-23T09:19:50;3.65;;;2.10;;
80854;SDS011;70272;49.222;-122.892;2024-02-23T09:22:17;3.53;;;1.90;;
80854;SDS011;70272;49.222;-122.892;2024-02-23T09:24:43;3.45;;;1.92;;
80854;SDS011;70272;49.222;-122.892;2024-02-23T09:27:09;3.03;;;2.00;;
80854;SDS011;70272;49.222;-122.892;2024-02-23T09:29:36;3.67;;;2.08;;
80854;SDS011;70272;49.222;-122.892;2024-02-23T09:32:02;2.60;;;1.75;;
80854;SDS011;70272;49.222;-122.892;2024-02-23T09:34:30;2.92;;;1.85;;
80854;SDS011;70272;49.222;-122.892;2024-02-23T09:36:56;3.10;;;1.65;;
80854;SDS011;70272;49.222;-122.892;2024-02-23T09:39:23;2.47;;;1.70;;
80854;SDS011;70272;49.222;-122.892;2024-02-23T09:41:51;2.10;;;1.45;;
80854;SDS011;70272;49.222;-122.892;2024-02-23T09:44:19;3.10;;;1.63;;
80854;SDS011;70272;49.222;-122.892;2024-02-23T09:46:47;2.85;;;1.63;;
80854;SDS011;70272;49.222;-122.892;2024-02-23T09:49:14;2.25;;;1.40;;
80854;SDS011;70272;49.222;-122.892;2024-02-23T09:51:44;2.80;;;1.85;;
80854;SDS011;70272;49.222;-122.892;2024-02-23T09:54:10;2.35;;;1.58;;
80854;SDS011;70272;49.222;-122.892;2024-02-23T09:56:36;2.85;;;1.80;;
80854;SDS011;70272;49.222;-122.892;2024-02-23T09:59:04;3.08;;;1.90;;
80854;SDS011;70272;49.222;-122.892;2024-02-23T10:01:31;3.20;;;2.05;;
80854;SDS011;70272;49.222;-122.892;2024-02-23T10:03:58;3.50;;;2.30;;
80854;SDS011;70272;49.222;-122.892;2024-02-23T10:06:29;4.53;;;2.28;;
80854;SDS011;70272;49.222;-122.892;2024-02-23T10:08:56;3.10;;;2.08;;
80854;SDS011;70272;49.222;-122.892;2024-02-23T10:11:23;3.60;;;2.10;;
80854;SDS011;70272;49.222;-122.892;2024-02-23T10:13:51;6.60;;;4.05;;
80854;SDS011;70272;49.222;-122.892;2024-02-23T10:16:17;4.50;;;2.42;;
80854;SDS011;70272;49.222;-122.892;2024-02-23T10:18:47;4.78;;;2.30;;
80854;SDS011;70272;49.222;-122.892;2024-02-23T10:21:14;4.82;;;2.20;;
80854;SDS011;70272;49.222;-122.892;2024-02-23T10:23:42;4.00;;;2.90;;
80854;SDS011;70272;49.222;-122.892;2024-02-23T10:26:10;3.38;;;2.00;;
80854;SDS011;70272;49.222;-122.892;2024-02-23T10:28:36;3.40;;;2.17;;
80854;SDS011;70272;49.222;-122.892;2024-02-23T10:31:04;5.40;;;2.78;;
80854;SDS011;70272;49.222;-122.892;2024-02-23T10:33:31;2.95;;;2.10;;
80854;SDS011;70272;49.222;-122.892;2024-02-23T10:35:57;3.30;;;2.00;;
80854;SDS011;70272;49.222;-122.892;2024-02-23T10:38:23;3.33;;;2.10;;
80854;SDS011;70272;49.222;-122.892;2024-02-23T10:40:54;3.25;;;2.03;;
80854;SDS011;70272;49.222;-122.892;2024-02-23T10:43:33;3.63;;;1.90;;
80854;SDS011;70272;49.222;-122.892;2024-02-23T10:46:04;3.13;;;2.05;;
80854;SDS011;70272;49.222;-122.892;2024-02-23T10:48:34;2.58;;;1.73;;
80854;SDS011;70272;49.222;-122.892;2024-02-23T10:51:01;2.63;;;1.50;;
80854;SDS011;70272;49.222;-122.892;2024-02-23T10:53:28;2.40;;;1.75;;
80854;SDS011;70272;49.222;-122.892;2024-02-23T10:55:56;2.78;;;1.77;;
80854;SDS011;70272;49.222;-122.892;2024-02-23T10:58:25;3.45;;;1.75;;
80854;SDS011;70272;49.222;-122.892;2024-02-23T11:00:52;2.70;;;1.70;;
80854;SDS011;70272;49.222;-122.892;2024-02-23T11:03:22;2.65;;;1.60;;
80854;SDS011;70272;49.222;-122.892;2024-02-23T11:05:49;2.22;;;1.33;;
80854;SDS011;70272;49.222;-122.892;2024-02-23T11:08:18;2.97;;;1.77;;
80854;SDS011;70272;49.222;-122.892;2024-02-23T11:10:49;2.55;;;1.73;;
80854;SDS011;70272;49.222;-122.892;2024-02-23T11:13:19;3.35;;;2.03;;
80854;SDS011;70272;49.222;-122.892;2024-02-23T11:16:03;3.00;;;1.83;;
80854;SDS011;70272;49.222;-122.892;2024-02-23T11:18:30;2.58;;;1.75;;
80854;SDS011;70272;49.222;-122.892;2024-02-23T11:20:59;2.83;;;1.80;;
80854;SDS011;70272;49.222;-122.892;2024-02-23T11:23:48;2.85;;;1.88;;
80854;SDS011;70272;49.222;-122.892;2024-02-23T11:26:17;2.25;;;1.70;;
80854;SDS011;70272;49.222;-122.892;2024-02-23T11:31:19;2.58;;;1.63;;
80854;SDS011;70272;49.222;-122.892;2024-02-23T11:33:50;3.17;;;1.77;;
80854;SDS011;70272;49.222;-122.892;2024-02-23T11:36:29;2.42;;;1.50;;
80854;SDS011;70272;49.222;-122.892;2024-02-23T11:38:58;2.28;;;1.30;;
80854;SDS011;70272;49.222;-122.892;2024-02-23T11:41:26;1.88;;;1.40;;
80854;SDS011;70272;49.222;-122.892;2024-02-23T11:43:53;1.48;;;1.30;;
80854;SDS011;70272;49.222;-122.892;2024-02-23T11:46:23;2.17;;;1.30;;
80854;SDS011;70272;49.222;-122.892;2024-02-23T11:48:50;1.92;;;1.30;;
80854;SDS011;70272;49.222;-122.892;2024-02-23T11:51:22;1.90;;;1.20;;
80854;SDS011;70272;49.222;-122.892;2024-02-23T11:53:50;1.67;;;1.30;;
80854;SDS011;70272;49.222;-122.892;2024-02-23T11:56:16;2.28;;;1.10;;
80854;SDS011;70272;49.222;-122.892;2024-02-23T11:58:44;1.02;;;0.95;;
80854;SDS011;70272;49.222;-122.892;2024-02-23T12:01:12;1.83;;;1.40;;
80854;SDS011;70272;49.222;-122.892;2024-02-23T12:03:38;2.08;;;1.33;;
80854;SDS011;70272;49.222;-122.892;2024-02-23T12:06:04;1.10;;;1.00;;
80854;SDS011;70272;49.222;-122.892;2024-02-23T12:08:31;1.63;;;1.35;;
80854;SDS011;70272;49.222;-122.892;2024-02-23T12:11:04;1.90;;;1.20;;
80854;SDS011;70272;49.222;-122.892;2024-02-23T12:13:32;2.10;;;1.40;;
80854;SDS011;70272;49.222;-122.892;2024-02-23T12:15:59;1.67;;;1.30;;
80854;SDS011;70272;49.222;-122.892;2024-02-23T12:18:25;2.38;;;1.52;;
80854;SDS011;70272;49.222;-122.892;2024-02-23T12:21:15;2.83;;;1.50;;
80854;SDS011;70272;49.222;-122.892;2024-02-23T12:23:42;1.45;;;1.20;;
80854;SDS011;70272;49.222;-122.892;2024-02-23T12:26:09;1.75;;;1.40;;
80854;SDS011;70272;49.222;-122.892;2024-02-23T12:28:38;2.53;;;1.40;;
80854;SDS011;70272;49.222;-122.892;2024-02-23T12:31:05;1.30;;;1.20;;
80854;SDS011;70272;49.222;-122.892;2024-02-23T12:33:33;1.70;;;1.40;;
80854;SDS011;70272;49.222;-122.892;2024-02-23T12:36:00;2.05;;;1.40;;
80854;SDS011;70272;49.222;-122.892;2024-02-23T12:38:27;2.00;;;1.10;;
80854;SDS011;70272;49.222;-122.892;2024-02-23T12:40:54;1.60;;;1.30;;
80854;SDS011;70272;49.222;-122.892;2024-02-23T12:43:20;1.50;;;1.20;;
80854;SDS011;70272;49.222;-122.892;2024-02-23T12:45:52;2.05;;;1.38;;
80854;SDS011;70272;49.222;-122.892;2024-02-23T12:48:19;1.55;;;1.23;;
80854;SDS011;70272;49.222;-122.892;2024-02-23T12:50:46;1.60;;;1.25;;
80854;SDS011;70272;49.222;-122.892;2024-02-23T12:53:33;1.92;;;1.58;;
80854;SDS011;70272;49.222;-122.892;2024-02-23T12:56:05;2.38;;;1.58;;
80854;SDS011;70272;49.222;-122.892;2024-02-23T12:58:36;2.20;;;1.75;;
80854;SDS011;70272;49.222;-122.892;2024-02-23T13:01:04;1.88;;;1.50;;
80854;SDS011;70272;49.222;-122.892;2024-02-23T13:03:32;2.08;;;1.52;;
80854;SDS011;70272;49.222;-122.892;2024-02-23T13:05:59;2.33;;;1.42;;
80854;SDS011;70272;49.222;-122.892;2024-02-23T13:08:26;2.92;;;1.80;;
80854;SDS011;70272;49.222;-122.892;2024-02-23T13:10:53;3.58;;;1.60;;
80854;SDS011;70272;49.222;-122.892;2024-02-23T13:13:20;2.75;;;1.70;;
80854;SDS011;70272;49.222;-122.892;2024-02-23T13:15:47;2.58;;;1.65;;
80854;SDS011;70272;49.222;-122.892;2024-02-23T13:18:14;4.20;;;1.90;;
80854;SDS011;70272;49.222;-122.892;2024-02-23T13:20:40;2.33;;;1.75;;
80854;SDS011;70272;49.222;-122.892;2024-02-23T13:23:07;2.75;;;2.22;;
80854;SDS011;70272;49.222;-122.892;2024-02-23T13:25:37;3.75;;;1.90;;
80854;SDS011;70272;49.222;-122.892;2024-02-23T13:28:05;2.92;;;2.00;;
80854;SDS011;70272;49.222;-122.892;2024-02-23T13:30:32;3.80;;;1.92;;
80854;SDS011;70272;49.222;-122.892;2024-02-23T13:32:59;2.90;;;1.90;;
80854;SDS011;70272;49.222;-122.892;2024-02-23T13:35:25;3.65;;;1.85;;
80854;SDS011;70272;49.222;-122.892;2024-02-23T13:37:52;2.97;;;2.03;;
80854;SDS011;70272;49.222;-122.892;2024-02-23T13:40:18;3.38;;;2.10;;
80854;SDS011;70272;49.222;-122.892;2024-02-23T13:42:45;3.45;;;1.70;;
80854;SDS011;70272;49.222;-122.892;2024-02-23T13:45:14;3.63;;;1.88;;
80854;SDS011;70272;49.222;-122.892;2024-02-23T13:47:41;4.15;;;2.30;;
80854;SDS011;70272;49.222;-122.892;2024-02-23T13:50:09;3.63;;;2.10;;
80854;SDS011;70272;49.222;-122.892;2024-02-23T13:52:36;2.92;;;1.88;;
80854;SDS011;70272;49.222;-122.892;2024-02-23T13:55:02;3.60;;;1.90;;
80854;SDS011;70272;49.222;-122.892;2024-02-23T13:57:29;3.60;;;2.20;;
80854;SDS011;70272;49.222;-122.892;2024-02-23T13:59:55;4.18;;;1.92;;
80854;SDS011;70272;49.222;-122.892;2024-02-23T14:02:25;3.35;;;2.08;;
80854;SDS011;70272;49.222;-122.892;2024-02-23T14:07:27;2.50;;;1.67;;
80854;SDS011;70272;49.222;-122.892;2024-02-23T14:09:53;3.63;;;2.20;;
80854;SDS011;70272;49.222;-122.892;2024-02-23T14:12:20;3.03;;;2.30;;
80854;SDS011;70272;49.222;-122.892;2024-02-23T14:14:46;2.90;;;1.73;;